Aviation Digital Data Service (ADDS)

Output produced by TAFs form (0630 UTC 15 December 2017)
found at http://www.aviationweather.gov/adds/tafs/
 
KCAE 150556Z 00000KT 10SM BKN150 08/03 A2997 RMK AO2 SLP148 T00830033 10106 20056 58002
KCAE 150536Z 1506/1606 VRB03KT P6SM BKN150 
     FM151600 26010KT P6SM BKN200 
     FM160000 27004KT P6SM BKN200